createdAt,value
2023-01-09T00:06:54.630Z,4.41
2023-01-09T00:16:54.971Z,4.56
2023-01-09T00:26:55.060Z,4.27
2023-01-09T00:36:55.406Z,4.41
2023-01-09T00:46:55.447Z,4.41
2023-01-09T00:56:55.767Z,4.56
2023-01-09T01:06:55.799Z,4.71
2023-01-09T01:16:56.160Z,4.56
2023-01-09T01:26:56.214Z,4.41
2023-01-09T01:36:56.545Z,5.11
2023-01-09T01:46:56.568Z,4.27
2023-01-09T01:56:56.899Z,4.41
2023-01-09T02:06:56.960Z,4.56
2023-01-09T02:17:00.313Z,4.71
2023-01-09T02:26:57.369Z,4.71
2023-01-09T02:36:57.619Z,4.71
2023-01-09T02:46:57.866Z,4.71
2023-01-09T02:56:58.202Z,4.71
2023-01-09T03:06:58.267Z,4.86
2023-01-09T03:16:58.561Z,4.86
2023-01-09T03:26:58.590Z,4.86
2023-01-09T03:36:58.837Z,4.86
2023-01-09T03:46:59.065Z,4.86
2023-01-09T03:56:59.306Z,5.41
2023-01-09T04:06:59.530Z,4.80
2023-01-09T04:16:59.778Z,5.11
2023-01-09T04:27:00.017Z,3.67
2023-01-09T04:37:00.259Z,4.16
2023-01-09T04:47:00.532Z,4.00
2023-01-09T04:57:00.779Z,4.00
2023-01-09T05:07:01.052Z,3.83
2023-01-09T05:17:03.149Z,4.00
2023-01-09T05:27:01.212Z,4.32
2023-01-09T05:37:01.285Z,4.80
2023-01-09T05:47:02.874Z,4.64
2023-01-09T05:57:01.735Z,3.81
2023-01-09T06:07:01.840Z,4.32
2023-01-09T06:17:01.901Z,3.50
2023-01-09T06:27:02.144Z,3.34
2023-01-09T06:37:02.600Z,3.18
2023-01-09T06:47:02.475Z,3.34
2023-01-09T06:57:02.745Z,3.34
2023-01-09T07:07:02.801Z,3.01
2023-01-09T07:17:03.122Z,2.18
2023-01-09T07:27:03.192Z,1.90
2023-01-09T07:37:03.487Z,1.52
2023-01-09T07:47:03.617Z,1.14
2023-01-09T07:57:03.847Z,0.74
2023-01-09T08:07:04.306Z,0.33
2023-01-09T08:17:04.238Z,0.54
2023-01-09T08:27:04.273Z,1.33
2023-01-09T08:37:04.596Z,1.71
2023-01-09T08:47:04.643Z,1.52
2023-01-09T08:57:04.957Z,1.71
2023-01-09T09:07:05.009Z,1.90
2023-01-09T09:17:06.290Z,1.14
2023-01-09T09:27:05.328Z,1.90
2023-01-09T09:37:05.660Z,1.70
2023-01-09T09:47:05.711Z,1.08
2023-01-09T09:57:05.989Z,0.65
2023-01-09T10:07:06.106Z,1.49
2023-01-09T10:17:06.453Z,1.81
2023-01-09T10:27:06.494Z,2.45
2023-01-09T10:37:06.831Z,2.65
2023-01-09T10:47:06.879Z,2.86
2023-01-09T10:57:07.197Z,2.45
2023-01-09T11:07:07.235Z,2.24
2023-01-09T11:17:07.570Z,2.24
2023-01-09T11:27:07.636Z,2.55
2023-01-09T11:37:08.081Z,2.33
2023-01-09T11:47:07.998Z,2.10
2023-01-09T11:57:08.127Z,1.41
2023-01-09T12:07:08.157Z,2.10
2023-01-09T12:17:08.476Z,1.87
2023-01-09T12:27:08.553Z,1.87
2023-01-09T12:37:11.408Z,3.19
2023-01-09T12:47:08.903Z,3.06
2023-01-09T12:57:09.209Z,3.06
2023-01-09T13:07:09.246Z,3.26
2023-01-09T13:17:10.497Z,3.45
2023-01-09T13:27:09.732Z,0.93
2023-01-09T13:37:10.115Z,2.03
2023-01-09T13:47:10.144Z,0.70
2023-01-09T13:57:12.490Z,1.38
2023-01-09T14:07:11.278Z,1.60
2023-01-09T14:17:10.790Z,2.45
2023-01-09T14:27:10.830Z,2.65
2023-01-09T14:37:11.305Z,1.90
2023-01-09T14:47:11.162Z,2.29
2023-01-09T14:57:11.430Z,2.68
2023-01-09T15:07:11.473Z,2.87
2023-01-09T15:17:11.802Z,3.24
2023-01-09T15:27:11.839Z,2.09
2023-01-09T15:37:13.091Z,1.90
2023-01-09T15:47:12.323Z,1.90
2023-01-09T15:57:12.650Z,1.90
2023-01-09T16:07:12.687Z,1.29
2023-01-09T16:17:13.030Z,1.70
2023-01-09T16:27:13.053Z,0.94
2023-01-09T16:37:13.454Z,0.74
2023-01-09T16:47:13.569Z,1.33
2023-01-09T16:57:13.873Z,1.71
2023-01-09T17:07:13.908Z,1.90
2023-01-09T17:17:14.223Z,1.71
2023-01-09T17:27:14.276Z,2.09
2023-01-09T17:37:14.665Z,2.27
2023-01-09T17:47:14.748Z,1.12
2023-01-09T17:57:15.183Z,1.48
2023-01-09T18:07:15.237Z,1.71
2023-01-09T18:17:15.555Z,2.09
2023-01-09T18:27:15.825Z,1.48
2023-01-09T18:37:15.846Z,1.12
2023-01-09T18:47:15.897Z,2.09
2023-01-09T18:57:16.139Z,1.66
2023-01-09T19:07:16.385Z,1.83
2023-01-09T19:17:16.632Z,2.69
2023-01-09T19:27:17.009Z,3.01
2023-01-09T19:37:17.165Z,2.69
2023-01-09T19:47:17.355Z,1.66
2023-01-09T19:57:17.394Z,1.48
2023-01-09T20:07:17.893Z,2.18
2023-01-09T20:17:18.124Z,2.18
2023-01-09T20:27:18.056Z,2.35
2023-01-09T20:37:19.047Z,1.30
2023-01-09T20:47:18.519Z,1.66
2023-01-09T20:57:18.901Z,2.18
2023-01-09T21:07:18.820Z,2.35
2023-01-09T21:17:22.171Z,2.52
2023-01-09T21:27:19.204Z,2.52
2023-01-09T21:37:19.562Z,2.18
2023-01-09T21:47:19.596Z,2.35
2023-01-09T21:57:19.936Z,1.83
2023-01-09T22:07:19.986Z,1.30
2023-01-09T22:17:20.307Z,1.12
2023-01-09T22:27:20.338Z,0.75
2023-01-09T22:37:20.663Z,0.75
2023-01-09T22:47:20.708Z,0.94
2023-01-09T22:57:21.036Z,1.30
2023-01-09T23:07:21.073Z,1.66
2023-01-09T23:17:21.398Z,1.48
2023-01-09T23:27:21.433Z,1.83
2023-01-09T23:37:21.767Z,1.83
2023-01-09T23:47:21.800Z,2.01
2023-01-09T23:57:22.141Z,2.01
